createdAt,value
2019-04-22T00:02:11.343Z,12.40
2019-04-22T00:04:50.913Z,12.40
2019-04-22T00:07:36.168Z,12.40
2019-04-22T00:10:11.594Z,12.30
2019-04-22T00:12:50.002Z,12.30
2019-04-22T00:15:15.241Z,12.30
2019-04-22T00:18:03.307Z,12.30
2019-04-22T00:20:22.420Z,12.30
2019-04-22T00:22:51.883Z,12.30
2019-04-22T00:28:02.462Z,12.30
2019-04-22T00:30:34.120Z,12.30
2019-04-22T00:33:13.073Z,12.40
2019-04-22T00:35:49.487Z,12.40
2019-04-22T00:38:23.450Z,12.30
2019-04-22T00:41:00.573Z,12.30
2019-04-22T00:43:32.957Z,12.30
2019-04-22T00:45:55.460Z,12.30
2019-04-22T00:48:35.148Z,12.30
2019-04-22T00:51:25.388Z,12.30
2019-04-22T00:53:41.727Z,12.30
2019-04-22T00:56:20.104Z,12.30
2019-04-22T01:01:31.957Z,12.30
2019-04-22T01:03:55.741Z,12.30
2019-04-22T01:06:25.857Z,12.30
2019-04-22T01:09:00.192Z,12.30
2019-04-22T01:11:29.929Z,12.30
2019-04-22T01:14:20.343Z,12.30
2019-04-22T01:16:48.991Z,12.30
2019-04-22T01:19:00.552Z,12.20
2019-04-22T01:24:08.848Z,12.20
2019-04-22T01:26:38.821Z,12.20
2019-04-22T01:29:08.259Z,12.20
2019-04-22T01:31:33.044Z,12.20
2019-04-22T01:34:16.166Z,12.20
2019-04-22T01:36:54.081Z,12.20
2019-04-22T01:39:40.279Z,12.10
2019-04-22T01:42:05.668Z,12.10
2019-04-22T01:44:45.259Z,12.10
2019-04-22T01:47:13.380Z,12.10
2019-04-22T01:49:47.897Z,12.10
2019-04-22T01:52:15.481Z,12.10
2019-04-22T01:55:02.177Z,12.10
2019-04-22T01:57:19.117Z,12.10
2019-04-22T01:59:45.958Z,12.10
2019-04-22T02:02:32.129Z,12.10
2019-04-22T02:05:04.786Z,12.10
2019-04-22T02:10:05.306Z,12.10
2019-04-22T02:12:38.781Z,12.10
2019-04-22T02:15:11.846Z,12.00
2019-04-22T02:17:53.400Z,12.00
2019-04-22T02:20:31.139Z,12.00
2019-04-22T02:46:49.442Z,12.00
2019-04-22T02:54:29.775Z,12.00
2019-04-22T02:56:38.349Z,12.00
2019-04-22T03:01:47.368Z,12.00
2019-04-22T03:04:20.701Z,12.00
2019-04-22T03:06:55.956Z,12.00
2019-04-22T03:09:23.942Z,12.00
2019-04-22T03:14:31.698Z,12.00
2019-04-22T03:16:57.244Z,12.00
2019-04-22T03:22:10.206Z,12.00
2019-04-22T03:24:54.342Z,12.00
2019-04-22T03:27:17.171Z,12.00
2019-04-22T03:35:39.898Z,11.90
2019-04-22T03:40:28.191Z,12.00
2019-04-22T03:45:26.829Z,12.00
2019-04-22T03:50:25.908Z,11.90
2019-04-22T03:58:01.820Z,11.90
2019-04-22T04:05:45.480Z,11.90
2019-04-22T04:11:01.180Z,12.00
2019-04-22T04:15:42.690Z,11.90
2019-04-22T04:18:26.556Z,12.00
2019-04-22T04:21:13.708Z,12.00
2019-04-22T04:23:43.599Z,12.00
2019-04-22T04:31:09.595Z,12.00
2019-04-22T04:33:45.224Z,11.90
2019-04-22T04:36:14.624Z,12.00
2019-04-22T04:38:45.676Z,11.90
2019-04-22T04:43:52.633Z,11.90
2019-04-22T04:46:43.415Z,11.90
2019-04-22T04:49:00.937Z,11.90
2019-04-22T04:54:08.694Z,11.90
2019-04-22T04:56:36.054Z,11.90
2019-04-22T04:59:16.691Z,12.00
2019-04-22T05:01:45.098Z,12.00
2019-04-22T05:06:53.710Z,12.10
2019-04-22T05:14:23.198Z,12.20
2019-04-22T05:16:54.306Z,12.20
2019-04-22T05:19:26.594Z,12.20
2019-04-22T05:21:58.027Z,12.20
2019-04-22T05:27:08.659Z,12.20
2019-04-22T05:29:36.247Z,12.20
2019-04-22T05:32:03.194Z,12.20
2019-04-22T05:34:40.097Z,12.20
2019-04-22T05:37:14.650Z,12.30
2019-04-22T05:39:43.627Z,12.40
2019-04-22T05:42:16.351Z,12.40
2019-04-22T05:44:49.819Z,12.50
2019-04-22T05:47:23.701Z,12.50
2019-04-22T05:49:48.565Z,12.60
2019-04-22T05:52:24.898Z,12.60
2019-04-22T05:55:01.986Z,12.60
2019-04-22T05:57:49.372Z,12.70
2019-04-22T06:00:08.095Z,12.70
2019-04-22T06:02:50.728Z,12.70
2019-04-22T06:05:14.633Z,12.80
2019-04-22T06:07:41.779Z,12.90
2019-04-22T06:10:21.353Z,12.90
2019-04-22T06:12:42.993Z,12.90
2019-04-22T06:15:24.256Z,13.00
2019-04-22T06:18:04.541Z,13.00
2019-04-22T06:20:33.913Z,13.10
2019-04-22T06:23:12.864Z,13.20
2019-04-22T06:28:26.849Z,13.40
2019-04-22T06:30:53.400Z,13.50
2019-04-22T06:33:20.584Z,13.60
2019-04-22T06:41:04.247Z,13.80
2019-04-22T06:43:33.677Z,13.90
2019-04-22T06:46:00.711Z,14.00
2019-04-22T06:48:50.466Z,14.00
2019-04-22T06:51:08.074Z,14.10
2019-04-22T06:53:41.149Z,14.20
2019-04-22T06:56:16.142Z,14.30
2019-04-22T06:58:51.037Z,14.40
2019-04-22T07:06:26.202Z,14.50
2019-04-22T07:09:14.504Z,14.50
2019-04-22T07:11:23.723Z,14.40
2019-04-22T07:14:01.672Z,14.40
2019-04-22T07:19:12.309Z,14.30
2019-04-22T07:21:37.085Z,14.30
2019-04-22T07:24:28.266Z,14.30
2019-04-22T07:26:44.913Z,14.40
2019-04-22T07:29:12.113Z,14.40
2019-04-22T07:31:56.331Z,14.60
2019-04-22T07:34:28.365Z,14.70
2019-04-22T07:36:59.174Z,14.90
2019-04-22T07:39:30.854Z,15.00
2019-04-22T07:41:58.611Z,15.10
2019-04-22T07:44:38.457Z,15.30
2019-04-22T07:47:16.935Z,15.40
2019-04-22T07:49:39.533Z,15.50
2019-04-22T07:52:09.812Z,15.70
2019-04-22T07:54:48.163Z,15.80
2019-04-22T07:57:22.722Z,15.90
2019-04-22T07:59:50.945Z,16.00
2019-04-22T08:02:26.658Z,16.20
2019-04-22T08:07:30.394Z,16.60
2019-04-22T08:10:08.775Z,16.90
2019-04-22T08:15:06.274Z,17.60
2019-04-22T08:20:09.155Z,18.30
2019-04-22T08:22:43.140Z,18.60
2019-04-22T08:25:10.493Z,19.00
2019-04-22T08:27:50.496Z,19.40
2019-04-22T08:30:30.389Z,19.80
2019-04-22T08:32:54.525Z,20.20
2019-04-22T08:35:40.800Z,20.50
2019-04-22T08:40:40.416Z,21.30
2019-04-22T08:43:14.415Z,21.70
2019-04-22T08:45:46.122Z,22.00
2019-04-22T08:48:18.578Z,22.40
2019-04-22T08:50:52.347Z,22.70
2019-04-22T08:53:29.132Z,23.00
2019-04-22T08:56:12.250Z,23.40
2019-04-22T08:58:28.118Z,23.70
2019-04-22T09:01:04.625Z,24.10
2019-04-22T09:03:30.549Z,24.40
2019-04-22T09:06:11.399Z,24.70
2019-04-22T09:08:45.620Z,25.00
2019-04-22T09:11:21.613Z,25.40
2019-04-22T09:13:52.095Z,25.70
2019-04-22T09:16:28.262Z,26.00
2019-04-22T09:18:56.165Z,26.20
2019-04-22T09:21:43.913Z,26.50
2019-04-22T09:24:00.409Z,26.70
2019-04-22T09:29:06.569Z,27.20
2019-04-22T09:31:37.255Z,27.50
2019-04-22T09:34:06.536Z,27.70
2019-04-22T09:36:46.866Z,27.90
2019-04-22T09:39:19.448Z,28.20
2019-04-22T09:41:48.352Z,28.50
2019-04-22T09:44:16.526Z,28.70
2019-04-22T09:46:52.601Z,28.90
2019-04-22T09:49:29.183Z,29.30
2019-04-22T09:52:01.456Z,29.50
2019-04-22T09:54:44.152Z,29.80
2019-04-22T09:57:00.074Z,30.10
2019-04-22T09:59:35.278Z,30.50
2019-04-22T10:02:19.586Z,31.30
2019-04-22T10:04:43.214Z,32.20
2019-04-22T10:07:19.144Z,33.90
2019-04-22T10:12:22.680Z,37.80
2019-04-22T10:14:49.193Z,39.50
2019-04-22T10:17:17.865Z,40.80
2019-04-22T10:19:53.693Z,40.90
2019-04-22T10:22:33.808Z,41.50
2019-04-22T10:27:32.465Z,43.00
2019-04-22T10:30:32.142Z,43.60
2019-04-22T10:32:37.611Z,44.00
2019-04-22T10:35:09.233Z,44.40
2019-04-22T10:37:38.625Z,44.70
2019-04-22T10:40:19.560Z,44.80
2019-04-22T10:42:51.476Z,45.00
2019-04-22T10:45:23.950Z,45.00
2019-04-22T10:47:56.059Z,45.00
2019-04-22T10:50:43.034Z,45.00
2019-04-22T10:53:17.439Z,44.90
2019-04-22T10:55:51.460Z,44.70
2019-04-22T10:58:22.870Z,44.70
2019-04-22T11:00:54.703Z,45.00
2019-04-22T11:03:28.394Z,45.20
2019-04-22T11:05:59.258Z,45.20
2019-04-22T11:08:40.212Z,44.90
2019-04-22T11:11:16.943Z,44.70
2019-04-22T11:13:35.972Z,44.60
2019-04-22T11:16:07.616Z,44.90
2019-04-22T11:18:38.527Z,45.00
2019-04-22T11:21:09.722Z,44.90
2019-04-22T11:23:40.675Z,44.30
2019-04-22T11:26:12.120Z,44.00
2019-04-22T11:28:43.447Z,43.70
2019-04-22T11:31:14.780Z,43.30
2019-04-22T11:33:45.613Z,42.90
2019-04-22T11:36:17.710Z,42.60
2019-04-22T11:38:53.008Z,42.30
2019-04-22T11:41:21.559Z,42.00
2019-04-22T11:43:53.571Z,41.60
2019-04-22T11:46:25.585Z,40.90
2019-04-22T11:48:56.478Z,39.80
2019-04-22T11:51:27.610Z,38.80
2019-04-22T11:54:17.304Z,37.70
2019-04-22T11:56:49.578Z,36.50
2019-04-22T11:59:20.579Z,35.60
2019-04-22T12:01:52.821Z,34.50
2019-04-22T12:04:23.725Z,33.90
2019-04-22T12:06:55.904Z,33.30
2019-04-22T12:09:27.975Z,32.80
2019-04-22T12:11:59.983Z,32.40
2019-04-22T12:14:31.914Z,31.90
2019-04-22T12:17:03.567Z,31.60
2019-04-22T12:19:35.199Z,31.30
2019-04-22T12:22:07.136Z,31.00
2019-04-22T12:24:38.403Z,30.80
2019-04-22T12:27:10.534Z,30.50
2019-04-22T12:29:42.817Z,30.30
2019-04-22T12:32:13.963Z,30.20
2019-04-22T12:34:44.824Z,30.00
2019-04-22T12:37:26.049Z,29.80
2019-04-22T12:39:51.261Z,29.60
2019-04-22T12:42:21.475Z,29.40
2019-04-22T12:44:52.172Z,29.20
2019-04-22T12:47:24.339Z,29.00
2019-04-22T12:50:08.821Z,28.70
2019-04-22T12:52:36.890Z,28.50
2019-04-22T12:55:01.633Z,28.30
2019-04-22T12:57:34.734Z,28.10
2019-04-22T13:00:07.957Z,28.00
2019-04-22T13:02:38.971Z,27.80
2019-04-22T13:05:12.419Z,27.60
2019-04-22T13:07:44.199Z,27.40
2019-04-22T13:10:15.730Z,27.40
2019-04-22T13:12:47.049Z,27.40
2019-04-22T13:15:20.073Z,27.40
2019-04-22T13:18:04.184Z,27.50
2019-04-22T13:20:24.313Z,27.50
2019-04-22T13:22:57.014Z,27.60
2019-04-22T13:25:29.941Z,27.50
2019-04-22T13:28:01.013Z,27.50
2019-04-22T13:30:32.578Z,27.50
2019-04-22T13:33:04.991Z,27.30
2019-04-22T13:35:36.298Z,27.20
2019-04-22T13:38:06.987Z,27.10
2019-04-22T13:40:39.398Z,27.00
2019-04-22T13:43:11.279Z,26.80
2019-04-22T13:45:43.796Z,26.80
2019-04-22T13:48:33.600Z,26.60
2019-04-22T13:51:15.178Z,26.50
2019-04-22T13:56:12.516Z,26.20
2019-04-22T13:58:42.379Z,26.00
2019-04-22T14:01:00.736Z,25.80
2019-04-22T14:03:49.290Z,25.60
2019-04-22T14:06:20.659Z,25.40
2019-04-22T14:08:51.591Z,25.20
2019-04-22T14:11:34.524Z,25.00
2019-04-22T14:13:56.603Z,24.90
2019-04-22T14:16:28.966Z,24.80
2019-04-22T14:19:00.196Z,24.70
2019-04-22T14:21:32.582Z,24.70
2019-04-22T14:24:04.849Z,24.60
2019-04-22T14:26:52.412Z,24.50
2019-04-22T14:29:08.564Z,24.40
2019-04-22T14:31:40.384Z,24.40
2019-04-22T14:34:13.209Z,24.30
2019-04-22T14:36:45.484Z,24.20
2019-04-22T14:39:17.690Z,24.10
2019-04-22T14:44:08.381Z,24.10
2019-04-22T14:45:14.963Z,24.00
2019-04-22T14:49:47.207Z,23.80
2019-04-22T14:52:22.681Z,23.70
2019-04-22T14:54:43.479Z,23.60
2019-04-22T14:57:05.172Z,23.50
2019-04-22T14:59:37.485Z,23.40
2019-04-22T15:02:09.955Z,23.40
2019-04-22T15:04:42.883Z,23.30
2019-04-22T15:07:14.863Z,23.20
2019-04-22T15:09:46.415Z,23.10
2019-04-22T15:12:27.741Z,23.10
2019-04-22T15:14:51.163Z,23.00
2019-04-22T15:17:41.062Z,22.90
2019-04-22T15:20:21.572Z,22.80
2019-04-22T15:22:52.774Z,22.70
2019-04-22T15:25:23.762Z,22.60
2019-04-22T15:27:55.298Z,22.60
2019-04-22T15:30:27.735Z,22.50
2019-04-22T15:32:59.084Z,22.40
2019-04-22T15:35:31.376Z,22.30
2019-04-22T15:38:04.509Z,22.30
2019-04-22T15:40:36.441Z,22.20
2019-04-22T15:43:08.762Z,22.20
2019-04-22T15:45:41.119Z,22.10
2019-04-22T15:48:12.387Z,22.10
2019-04-22T15:50:44.644Z,22.00
2019-04-22T15:53:15.848Z,22.00
2019-04-22T15:55:47.235Z,21.90
2019-04-22T15:58:19.605Z,21.90
2019-04-22T16:00:59.958Z,21.80
2019-04-22T16:03:24.588Z,21.80
2019-04-22T16:05:57.797Z,21.70
2019-04-22T16:08:31.963Z,21.60
2019-04-22T16:11:01.996Z,21.50
2019-04-22T16:13:36.770Z,21.50
2019-04-22T16:16:06.923Z,21.40
2019-04-22T16:18:40.283Z,21.30
2019-04-22T16:21:11.471Z,21.30
2019-04-22T16:24:00.367Z,21.20
2019-04-22T16:26:48.459Z,21.20
2019-04-22T16:29:21.257Z,21.10
2019-04-22T16:31:53.458Z,21.00
2019-04-22T16:34:24.952Z,20.90
2019-04-22T16:36:56.727Z,20.90
2019-04-22T16:39:29.299Z,20.80
2019-04-22T16:42:00.788Z,20.80
2019-04-22T16:44:32.377Z,20.70
2019-04-22T16:47:03.812Z,20.70
2019-04-22T16:49:35.170Z,20.60
2019-04-22T16:52:07.982Z,20.60
2019-04-22T16:54:40.071Z,20.50
2019-04-22T16:57:12.121Z,20.40
2019-04-22T16:59:44.563Z,20.40
2019-04-22T17:02:34.826Z,20.30
2019-04-22T17:05:33.736Z,20.20
2019-04-22T17:08:05.929Z,20.20
2019-04-22T17:10:37.843Z,20.10
2019-04-22T17:13:13.709Z,20.00
2019-04-22T17:15:42.041Z,20.00
2019-04-22T17:18:15.074Z,19.90
2019-04-22T17:20:51.138Z,19.80
2019-04-22T17:23:23.009Z,19.80
2019-04-22T17:25:54.458Z,19.70
2019-04-22T17:28:33.404Z,19.70
2019-04-22T17:31:04.812Z,19.60
2019-04-22T17:33:37.144Z,19.60
2019-04-22T17:36:09.318Z,19.50
2019-04-22T17:38:48.599Z,19.40
2019-04-22T17:41:24.381Z,19.40
2019-04-22T17:44:13.609Z,19.30
2019-04-22T17:46:44.607Z,19.30
2019-04-22T17:49:37.261Z,19.20
2019-04-22T17:54:50.271Z,19.10
2019-04-22T17:57:24.162Z,19.00
2019-04-22T17:59:56.798Z,19.00
2019-04-22T18:02:24.950Z,18.90
2019-04-22T18:04:49.639Z,18.80
2019-04-22T18:07:41.384Z,18.80
2019-04-22T18:10:28.797Z,18.70
2019-04-22T18:12:47.390Z,18.70
2019-04-22T18:15:16.350Z,18.60
2019-04-22T18:17:47.674Z,18.50
2019-04-22T18:20:18.031Z,18.50
2019-04-22T18:22:43.396Z,18.50
2019-04-22T18:25:16.357Z,18.40
2019-04-22T18:27:59.052Z,18.30
2019-04-22T18:30:20.080Z,18.30
2019-04-22T18:33:03.205Z,18.20
2019-04-22T18:35:33.959Z,18.20
2019-04-22T18:38:18.139Z,18.10
2019-04-22T18:40:40.756Z,18.10
2019-04-22T18:43:17.050Z,18.10
2019-04-22T18:45:54.521Z,18.00
2019-04-22T18:48:12.743Z,18.00
2019-04-22T18:51:09.206Z,17.90
2019-04-22T18:53:54.052Z,17.90
2019-04-22T18:56:34.370Z,17.80
2019-04-22T18:58:57.258Z,17.70
2019-04-22T19:01:19.898Z,17.70
2019-04-22T19:04:01.455Z,17.60
2019-04-22T19:09:23.944Z,17.50
2019-04-22T19:12:01.683Z,17.50
2019-04-22T19:14:25.044Z,17.40
2019-04-22T19:17:07.698Z,17.40
2019-04-22T19:19:33.338Z,17.30
2019-04-22T19:22:03.573Z,17.30
2019-04-22T19:24:40.110Z,17.20
2019-04-22T19:27:16.946Z,17.10
2019-04-22T19:29:54.479Z,17.10
2019-04-22T19:32:23.154Z,17.00
2019-04-22T19:34:51.077Z,16.90
2019-04-22T19:37:25.353Z,16.90
2019-04-22T19:40:04.520Z,16.80
2019-04-22T19:42:38.255Z,16.80
2019-04-22T19:45:02.098Z,16.70
2019-04-22T19:47:38.648Z,16.70
2019-04-22T19:50:14.551Z,16.60
2019-04-22T19:52:39.819Z,16.60
2019-04-22T19:55:12.379Z,16.50
2019-04-22T19:57:43.169Z,16.50
2019-04-22T20:00:31.248Z,16.40
2019-04-22T20:03:21.730Z,16.40
2019-04-22T20:06:13.035Z,16.30
2019-04-22T20:08:45.945Z,16.30
2019-04-22T20:11:19.766Z,16.30
2019-04-22T20:13:49.952Z,16.20
2019-04-22T20:16:08.603Z,16.20
2019-04-22T20:18:56.497Z,16.10
2019-04-22T20:21:33.392Z,16.10
2019-04-22T20:23:45.317Z,16.10
2019-04-22T20:26:23.520Z,16.00
2019-04-22T20:28:59.956Z,16.00
2019-04-22T20:31:37.845Z,16.00
2019-04-22T20:34:14.383Z,15.90
2019-04-22T20:36:57.037Z,15.80
2019-04-22T20:39:06.549Z,15.80
2019-04-22T20:41:39.974Z,15.80
2019-04-22T20:44:22.669Z,15.70
2019-04-22T20:46:48.847Z,15.70
2019-04-22T20:49:27.621Z,15.70
2019-04-22T20:54:28.564Z,15.60
2019-04-22T20:56:55.082Z,15.60
2019-04-22T20:59:35.973Z,15.50
2019-04-22T21:02:01.916Z,15.50
2019-04-22T21:04:34.881Z,15.50
2019-04-22T21:07:09.173Z,15.40
2019-04-22T21:09:43.081Z,15.40
2019-04-22T21:12:13.714Z,15.40
2019-04-22T21:14:58.558Z,15.30
2019-04-22T21:17:25.039Z,15.20
2019-04-22T21:20:00.714Z,15.20
2019-04-22T21:22:27.329Z,15.10
2019-04-22T21:24:54.471Z,15.10
2019-04-22T21:27:35.715Z,15.00
2019-04-22T21:29:58.113Z,15.00
2019-04-22T21:32:38.550Z,14.90
2019-04-22T21:35:12.051Z,14.90
2019-04-22T21:37:44.424Z,14.80
2019-04-22T21:40:16.417Z,14.80
2019-04-22T21:42:58.331Z,14.70
2019-04-22T21:45:14.735Z,14.70
2019-04-22T21:48:04.796Z,14.70
2019-04-22T21:50:46.288Z,14.70
2019-04-22T21:53:00.776Z,14.60
2019-04-22T21:55:37.608Z,14.60
2019-04-22T21:58:27.649Z,14.50
2019-04-22T22:01:18.884Z,14.40
2019-04-22T22:03:55.241Z,14.40
2019-04-22T22:06:19.048Z,14.40
2019-04-22T22:08:59.445Z,14.30
2019-04-22T22:11:27.699Z,14.30
2019-04-22T22:14:04.646Z,14.30
2019-04-22T22:16:27.467Z,14.30
2019-04-22T22:19:06.887Z,14.20
2019-04-22T22:22:06.169Z,14.10
2019-04-22T22:24:21.109Z,14.10
2019-04-22T22:26:44.779Z,14.00
2019-04-22T22:29:33.299Z,14.00
2019-04-22T22:31:52.964Z,13.90
2019-04-22T22:34:24.821Z,13.90
2019-04-22T22:36:50.424Z,13.90
2019-04-22T22:39:23.139Z,13.80
2019-04-22T22:41:44.026Z,13.80
2019-04-22T22:44:24.211Z,13.70
2019-04-22T22:47:05.012Z,13.70
2019-04-22T22:49:45.832Z,13.70
2019-04-22T22:52:36.513Z,13.70
2019-04-22T22:54:46.327Z,13.70
2019-04-22T22:57:21.325Z,13.60
2019-04-22T22:59:51.302Z,13.60
2019-04-22T23:02:22.418Z,13.60
2019-04-22T23:04:59.390Z,13.50
2019-04-22T23:07:49.019Z,13.50
2019-04-22T23:10:00.237Z,13.50
2019-04-22T23:12:44.102Z,13.40
2019-04-22T23:15:06.296Z,13.40
2019-04-22T23:17:23.577Z,13.40
2019-04-22T23:19:52.771Z,13.30
2019-04-22T23:22:35.467Z,13.30
2019-04-22T23:25:19.156Z,13.30
2019-04-22T23:27:51.459Z,13.30
2019-04-22T23:30:38.281Z,13.20
2019-04-22T23:33:20.229Z,13.20
2019-04-22T23:36:08.989Z,13.10
2019-04-22T23:38:51.876Z,13.10
2019-04-22T23:44:13.505Z,13.00
2019-04-22T23:46:56.611Z,13.00
2019-04-22T23:49:25.310Z,13.00
2019-04-22T23:52:13.987Z,12.90
2019-04-22T23:54:49.587Z,12.90
2019-04-22T23:57:09.029Z,12.80
2019-04-22T23:59:49.532Z,12.80
